Time;durP1;ratioP1;P1;durP2;ratioP2;P2;SDS_P1;SDS_P2;PMS_P1;PMS_P2;Temp;Humidity;BMP_temperature;BMP_pressure;BME280_temperature;BME280_humidity;BME280_pressure;Samples;Min_cycle;Max_cycle;Signal;HPM_P1;HPM_P2
2022/07/04 00:00:50;;;;;;;5.90;3.67;;;;;;;23.90;100.00;94656.16;4981851;28;20124;-88
2022/07/04 00:03:16;;;;;;;6.28;3.92;;;;;;;23.93;100.00;94658.16;4982302;28;20039;-88
2022/07/04 00:05:41;;;;;;;9.20;3.75;;;;;;;23.66;100.00;94657.88;4972478;28;20218;-89
2022/07/04 00:08:07;;;;;;;7.85;3.53;;;;;;;23.68;100.00;94653.75;4993839;28;20448;-88
2022/07/04 00:10:32;;;;;;;10.02;3.67;;;;;;;23.49;100.00;94649.06;4989840;28;20037;-89
2022/07/04 00:12:58;;;;;;;7.22;4.00;;;;;;;23.46;100.00;94654.34;4998779;28;20034;-88
2022/07/04 00:15:24;;;;;;;7.68;3.60;;;;;;;23.32;100.00;94663.56;4984376;28;20034;-88
2022/07/04 00:17:50;;;;;;;7.72;3.38;;;;;;;23.45;100.00;94656.22;4999371;28;20049;-89
2022/07/04 00:20:15;;;;;;;4.53;3.20;;;;;;;23.56;100.00;94665.31;4995323;28;20421;-89
2022/07/04 00:22:41;;;;;;;6.82;3.17;;;;;;;23.52;100.00;94655.63;4978309;28;20030;-88
2022/07/04 00:25:07;;;;;;;9.35;3.80;;;;;;;23.50;100.00;94655.22;4979421;28;20041;-89
2022/07/04 00:27:32;;;;;;;7.03;3.60;;;;;;;23.27;100.00;94663.78;4989479;28;20407;-88
2022/07/04 00:29:57;;;;;;;9.50;3.45;;;;;;;23.52;100.00;94666.34;5006817;28;20156;-91
2022/07/04 00:32:23;;;;;;;9.07;3.78;;;;;;;23.74;100.00;94670.31;5000493;28;20057;-90
2022/07/04 00:34:48;;;;;;;6.18;3.38;;;;;;;23.95;96.14;94671.97;5000474;28;20060;-90
2022/07/04 00:37:14;;;;;;;7.53;3.05;;;;;;;24.11;91.41;94672.78;5014055;28;20030;-90
2022/07/04 00:39:40;;;;;;;7.00;3.15;;;;;;;24.05;90.06;94674.16;4971800;28;20044;-90
2022/07/04 00:42:05;;;;;;;8.48;3.72;;;;;;;24.09;87.19;94672.31;4984220;28;20030;-90
2022/07/04 00:44:35;;;;;;;6.43;3.13;;;;;;;24.14;85.01;94674.75;4980672;28;20358;-90
2022/07/04 00:47:00;;;;;;;5.95;3.30;;;;;;;24.22;84.09;94670.34;4981129;28;20105;-90
2022/07/04 00:49:25;;;;;;;4.70;2.78;;;;;;;24.16;85.08;94673.63;4980686;28;20113;-89
2022/07/04 00:51:51;;;;;;;6.50;3.25;;;;;;;24.03;89.94;94665.69;4980931;28;20041;-91
2022/07/04 00:54:18;;;;;;;5.80;3.05;;;;;;;24.03;84.58;94664.91;4964728;28;20031;-90
2022/07/04 00:56:44;;;;;;;7.38;3.03;;;;;;;23.99;83.45;94667.47;4980641;28;20084;-90
2022/07/04 00:59:11;;;;;;;8.38;3.15;;;;;;;23.87;83.85;94671.00;4980512;28;20037;-90
2022/07/04 01:01:37;;;;;;;6.97;2.92;;;;;;;23.75;87.43;94669.19;4980253;28;20038;-90
2022/07/04 01:04:03;;;;;;;11.60;3.00;;;;;;;23.92;90.11;94669.97;4964370;28;20400;-90
2022/07/04 01:06:29;;;;;;;4.80;3.10;;;;;;;23.64;94.11;94670.81;4964528;28;20053;-91
2022/07/04 01:08:54;;;;;;;8.32;3.22;;;;;;;23.49;93.01;94667.78;4980108;28;20080;-91
2022/07/04 01:11:20;;;;;;;5.05;2.85;;;;;;;23.29;95.81;94670.34;4963848;28;20471;-89
2022/07/04 01:13:45;;;;;;;9.05;3.22;;;;;;;23.19;94.19;94665.44;4980487;28;20068;-91
2022/07/04 01:16:11;;;;;;;6.40;3.38;;;;;;;23.28;90.34;94662.66;4980267;28;20030;-90
2022/07/04 01:18:37;;;;;;;9.70;2.80;;;;;;;23.17;92.35;94659.69;4964608;28;20137;-90
2022/07/04 01:21:03;;;;;;;7.45;2.78;;;;;;;23.15;89.81;94653.91;4980464;28;20451;-90
2022/07/04 01:23:29;;;;;;;5.70;3.28;;;;;;;23.16;90.15;94648.19;4980153;28;20030;-90
2022/07/04 01:25:56;;;;;;;5.05;3.22;;;;;;;22.97;96.13;94651.53;4964420;28;20034;-91
2022/07/04 01:28:22;;;;;;;5.57;2.80;;;;;;;23.03;94.25;94649.38;4964510;28;20339;-89
2022/07/04 01:30:48;;;;;;;6.22;2.92;;;;;;;22.95;94.65;94643.03;4964453;28;20034;-89
2022/07/04 01:33:14;;;;;;;8.60;3.00;;;;;;;22.98;93.08;94644.28;4980073;28;20431;-89
2022/07/04 01:35:40;;;;;;;6.18;3.30;;;;;;;22.64;94.71;94643.72;4964162;28;20035;-90
2022/07/04 01:38:06;;;;;;;4.53;2.92;;;;;;;22.76;95.03;94648.25;4980483;28;20121;-90
2022/07/04 01:40:32;;;;;;;5.45;3.38;;;;;;;22.72;94.60;94645.47;4979939;28;20030;-89
2022/07/04 01:42:58;;;;;;;7.82;3.38;;;;;;;22.57;93.56;94639.72;4980120;28;20034;-91
2022/07/04 01:45:24;;;;;;;8.85;3.65;;;;;;;22.45;94.94;94634.38;4964227;28;20454;-90
2022/07/04 01:47:50;;;;;;;4.70;3.20;;;;;;;22.53;91.72;94643.41;4980148;28;20343;-90
2022/07/04 01:50:44;;;;;;;6.88;2.95;;;;;;;22.56;89.93;94637.41;4964051;28;20093;-89
2022/07/04 01:53:09;;;;;;;5.78;3.13;;;;;;;22.50;91.88;94636.84;4997391;28;20037;-89
2022/07/04 01:55:35;;;;;;;8.57;3.20;;;;;;;22.50;92.44;94636.06;4980131;28;20026;-90
2022/07/04 01:58:01;;;;;;;8.13;3.03;;;;;;;22.45;91.59;94637.81;4979955;28;20041;-89
2022/07/04 02:03:10;;;;;;;3.92;2.70;;;;;;;22.56;90.08;94632.06;4982277;28;20067;-89
2022/07/04 02:05:39;;;;;;;4.53;3.00;;;;;;;22.64;87.27;94630.38;4979929;28;20432;-90
2022/07/04 02:08:05;;;;;;;7.22;3.13;;;;;;;22.81;86.26;94631.97;4980085;28;20085;-90
2022/07/04 02:10:31;;;;;;;7.20;3.15;;;;;;;22.78;86.77;94630.78;4979812;28;20508;-90
2022/07/04 02:13:03;;;;;;;8.50;3.10;;;;;;;22.87;86.67;94620.69;4995776;28;20117;-90
2022/07/04 02:15:29;;;;;;;6.50;2.80;;;;;;;22.67;91.14;94622.47;4980894;28;20030;-91
2022/07/04 02:17:55;;;;;;;6.80;2.88;;;;;;;22.82;90.66;94620.19;4979623;28;20061;-91
2022/07/04 02:20:41;;;;;;;8.77;3.15;;;;;;;22.87;93.11;94625.28;4979601;28;20064;-90
2022/07/04 02:23:07;;;;;;;4.78;3.20;;;;;;;22.67;94.79;94627.03;4983277;28;20428;-90
2022/07/04 02:25:32;;;;;;;5.25;3.03;;;;;;;22.58;93.45;94621.81;4983211;28;20037;-90
2022/07/04 02:27:58;;;;;;;7.00;3.13;;;;;;;22.16;100.00;94620.97;5000778;28;20027;-90
2022/07/04 02:30:24;;;;;;;7.18;3.25;;;;;;;22.02;97.98;94620.53;4983484;28;20458;-90
2022/07/04 02:32:49;;;;;;;6.65;3.22;;;;;;;22.08;97.27;94629.84;5000527;28;20108;-90
2022/07/04 02:35:15;;;;;;;7.32;3.15;;;;;;;22.13;97.40;94628.84;4983143;28;20037;-90
2022/07/04 02:37:41;;;;;;;6.70;3.03;;;;;;;22.16;97.05;94628.19;5000515;28;20335;-90
2022/07/04 02:40:07;;;;;;;6.78;2.85;;;;;;;22.14;100.00;94625.84;4983263;28;20026;-90
2022/07/04 02:42:34;;;;;;;7.75;2.72;;;;;;;22.17;97.03;94617.19;4983009;28;20026;-91
2022/07/04 02:45:00;;;;;;;6.30;3.08;;;;;;;22.21;99.66;94622.63;4982823;28;20031;-90
2022/07/04 02:47:25;;;;;;;5.68;3.00;;;;;;;22.23;98.15;94615.06;4982949;28;20033;-90
2022/07/04 02:49:51;;;;;;;5.10;3.10;;;;;;;22.11;100.00;94615.06;4982884;28;20027;-90
2022/07/04 02:52:16;;;;;;;7.07;3.10;;;;;;;21.99;100.00;94618.53;4966915;28;20518;-91
2022/07/04 02:54:42;;;;;;;9.10;3.55;;;;;;;21.95;100.00;94623.75;4988185;28;20049;-91
2022/07/04 02:57:08;;;;;;;8.30;3.50;;;;;;;21.92;100.00;94613.75;4966751;28;20030;-90
2022/07/04 02:59:34;;;;;;;5.88;3.40;;;;;;;22.11;100.00;94617.75;4986007;28;20065;-90
2022/07/04 03:01:59;;;;;;;3.72;2.58;;;;;;;22.07;100.00;94606.97;4985581;28;20030;-90
2022/07/04 03:04:25;;;;;;;4.57;2.70;;;;;;;22.11;100.00;94609.75;4972047;28;20030;-90
2022/07/04 03:06:51;;;;;;;6.03;3.00;;;;;;;21.98;100.00;94611.66;4966527;28;20033;-90
2022/07/04 03:09:17;;;;;;;8.73;3.10;;;;;;;21.87;100.00;94608.63;4966644;28;20117;-91
2022/07/04 03:11:44;;;;;;;10.18;3.25;;;;;;;21.73;100.00;94615.09;4982680;28;20026;-90
2022/07/04 03:14:09;;;;;;;9.68;3.28;;;;;;;21.66;100.00;94616.72;4982263;28;20343;-90
2022/07/04 03:16:35;;;;;;;6.40;3.05;;;;;;;21.69;100.00;94618.75;4966399;28;20029;-89
2022/07/04 03:19:00;;;;;;;8.02;3.08;;;;;;;21.84;97.71;94615.44;4966171;28;20030;-90
2022/07/04 03:21:30;;;;;;;12.15;3.05;;;;;;;21.94;89.61;94618.75;4982119;28;20322;-90
2022/07/04 03:23:58;;;;;;;6.95;3.00;;;;;;;22.09;87.06;94620.72;4966267;28;20404;-90
2022/07/04 03:26:31;;;;;;;8.68;2.70;;;;;;;22.33;80.28;94629.84;4966706;28;20030;-89
2022/07/04 03:28:58;;;;;;;5.00;2.75;;;;;;;22.45;79.69;94629.81;4982922;28;20033;-90
2022/07/04 03:31:35;;;;;;;6.95;2.80;;;;;;;22.50;81.63;94623.50;4996809;28;20423;-90
2022/07/04 03:34:00;;;;;;;5.13;2.72;;;;;;;22.54;79.47;94628.94;5000806;28;20029;-90
2022/07/04 03:36:26;;;;;;;7.13;2.33;;;;;;;22.55;77.35;94623.25;5001552;28;20492;-90
2022/07/04 03:38:51;;;;;;;10.38;2.30;;;;;;;22.65;72.53;94623.91;5001497;28;20032;-89
2022/07/04 03:41:17;;;;;;;4.50;2.75;;;;;;;22.58;74.32;94625.25;5019277;28;20033;-89
2022/07/04 03:43:42;;;;;;;6.10;2.75;;;;;;;22.44;82.54;94636.28;5001673;28;20034;-91
2022/07/04 03:46:08;;;;;;;11.80;2.80;;;;;;;22.10;85.32;94633.00;5001326;28;20036;-91
2022/07/04 03:48:33;;;;;;;8.07;3.20;;;;;;;21.92;86.70;94631.63;5001315;28;20062;-90
2022/07/04 03:50:59;;;;;;;5.35;2.72;;;;;;;22.06;87.20;94636.66;5001331;28;20037;-91
2022/07/04 03:53:24;;;;;;;7.80;2.70;;;;;;;22.00;84.47;94634.19;5001204;28;20446;-90
2022/07/04 03:55:50;;;;;;;5.68;2.65;;;;;;;22.11;81.57;94639.09;5001504;28;20037;-90
2022/07/04 03:58:15;;;;;;;5.85;2.47;;;;;;;22.12;80.52;94636.09;5001097;28;20500;-90
2022/07/04 04:00:43;;;;;;;9.68;2.85;;;;;;;22.17;79.70;94643.88;4985045;28;20462;-90
2022/07/04 04:05:26;;;;;;;6.72;3.10;;;;;;;21.83;88.04;94637.88;5001273;28;20085;-90
2022/07/04 04:05:55;;;;;;;5.22;2.83;;;;;;;21.93;82.21;94638.53;5003579;28;20092;-90
2022/07/04 04:08:21;;;;;;;5.38;2.88;;;;;;;22.03;86.34;94633.53;5000941;28;20025;-92
2022/07/04 04:10:46;;;;;;;4.15;3.10;;;;;;;22.22;94.56;94634.84;5000922;28;20028;-90
2022/07/04 04:13:12;;;;;;;4.85;2.78;;;;;;;22.05;91.25;94632.44;4984835;28;20074;-90
2022/07/04 04:15:37;;;;;;;5.57;2.50;;;;;;;22.15;88.75;94638.09;4984816;28;20026;-90
2022/07/04 04:18:03;;;;;;;4.95;3.08;;;;;;;21.96;88.29;94637.88;5000748;28;20029;-89
2022/07/04 04:20:28;;;;;;;5.20;2.60;;;;;;;22.18;88.56;94642.00;5001054;28;20022;-90
2022/07/04 04:22:54;;;;;;;6.05;2.85;;;;;;;22.11;86.64;94639.09;4984620;28;20379;-90
2022/07/04 04:25:19;;;;;;;6.25;2.60;;;;;;;22.21;89.23;94635.19;5000470;28;20022;-90
2022/07/04 04:27:45;;;;;;;4.40;2.50;;;;;;;22.15;90.18;94637.28;5000586;28;20026;-90
2022/07/04 04:30:10;;;;;;;5.85;2.50;;;;;;;22.34;89.92;94647.41;4984498;28;20022;-90
2022/07/04 04:32:36;;;;;;;8.52;2.58;;;;;;;22.37;90.18;94648.63;5000300;28;20026;-90
2022/07/04 04:35:01;;;;;;;5.55;2.90;;;;;;;21.96;95.92;94651.97;5000462;28;20436;-91
2022/07/04 04:37:27;;;;;;;5.22;2.90;;;;;;;21.94;100.00;94643.53;4984394;28;20028;-90
2022/07/04 04:39:52;;;;;;;4.45;2.50;;;;;;;22.23;98.55;94640.97;5000392;28;20099;-92
2022/07/04 04:42:18;;;;;;;11.25;2.55;;;;;;;22.31;91.25;94640.06;4984381;28;20026;-93
2022/07/04 04:44:43;;;;;;;7.22;2.50;;;;;;;22.45;86.67;94643.16;4984093;28;20033;-92
2022/07/04 04:47:09;;;;;;;5.47;2.78;;;;;;;22.36;90.05;94641.75;4984296;28;20025;-93
2022/07/04 04:49:34;;;;;;;6.47;2.45;;;;;;;22.33;97.35;94637.84;4984291;28;20124;-93
2022/07/04 04:52:00;;;;;;;8.57;2.60;;;;;;;22.45;99.49;94642.38;5000194;28;20317;-93
2022/07/04 04:54:31;;;;;;;4.28;2.28;;;;;;;22.60;100.00;94638.28;5000298;28;20018;-94
2022/07/04 04:57:00;;;;;;;5.43;2.65;;;;;;;22.62;100.00;94636.03;5001182;28;20029;-94
2022/07/04 05:02:33;;;;;;;5.97;3.00;;;;;;;22.50;99.69;94633.38;4998156;28;20084;-94
2022/07/04 05:04:59;;;;;;;6.07;2.63;;;;;;;22.77;100.00;94623.88;4997021;28;20038;-94
2022/07/04 05:07:24;;;;;;;8.68;3.05;;;;;;;22.87;96.56;94628.72;4964660;28;20026;-93
2022/07/04 05:09:50;;;;;;;6.80;2.90;;;;;;;22.84;91.99;94628.66;4980642;28;20343;-93
2022/07/04 05:12:16;;;;;;;6.90;2.90;;;;;;;22.87;86.86;94625.28;4980805;28;20325;-93
2022/07/04 05:14:42;;;;;;;4.50;2.65;;;;;;;22.71;100.00;94626.00;4964646;28;20026;-93
2022/07/04 05:17:07;;;;;;;6.13;2.88;;;;;;;22.59;100.00;94618.03;4980642;28;20033;-93
2022/07/04 05:19:33;;;;;;;5.28;2.97;;;;;;;22.53;100.00;94622.81;4980652;28;20392;-94
2022/07/04 05:21:58;;;;;;;13.77;3.10;;;;;;;22.65;100.00;94621.25;4980394;28;20030;-93
2022/07/04 05:24:24;;;;;;;12.90;2.88;;;;;;;22.98;100.00;94610.34;4997594;28;20057;-94
2022/07/04 05:26:49;;;;;;;5.65;3.00;;;;;;;23.39;97.41;94618.28;4980288;28;20046;-93
2022/07/04 05:30:08;;;;;;;5.18;2.58;;;;;;;23.65;99.45;94618.88;4964302;28;20324;-93
2022/07/04 05:32:39;;;;;;;8.57;2.42;;;;;;;23.77;92.79;94624.16;4956499;29;20036;-92
2022/07/04 05:42:04;;;;;;;5.30;2.60;;;;;;;24.18;100.00;94623.19;4956883;29;20396;-93
2022/07/04 05:44:30;;;;;;;8.70;2.70;;;;;;;24.32;100.00;94622.72;4956671;29;20039;-93
2022/07/04 05:46:55;;;;;;;7.85;2.97;;;;;;;24.63;97.62;94626.47;4982230;28;20049;-93
2022/07/04 05:56:23;;;;;;;5.75;2.50;;;;;;;25.30;100.00;94620.09;4957443;28;20038;-93
2022/07/04 05:59:07;;;;;;;5.10;2.35;;;;;;;25.41;100.00;94623.75;4944482;29;20038;-93
2022/07/04 06:02:19;;;;;;;8.15;2.78;;;;;;;25.42;100.00;94624.53;4944502;29;20035;-93
2022/07/04 06:04:44;;;;;;;4.28;2.50;;;;;;;25.51;100.00;94621.63;4960265;29;20143;-92
2022/07/04 06:10:43;;;;;;;5.03;2.78;;;;;;;25.19;100.00;94619.91;5011408;28;20041;-93
2022/07/04 06:13:09;;;;;;;7.13;3.10;;;;;;;25.47;100.00;94623.47;5003333;28;20030;-93
2022/07/04 06:16:09;;;;;;;5.22;2.65;;;;;;;25.61;100.00;94626.41;5003234;28;20049;-93
2022/07/04 06:18:35;;;;;;;5.22;2.60;;;;;;;25.74;100.00;94627.00;4925034;29;20075;-92
2022/07/04 06:21:00;;;;;;;5.90;2.67;;;;;;;25.55;98.35;94628.63;4924991;29;20082;-92
2022/07/04 06:23:26;;;;;;;4.50;2.60;;;;;;;25.82;94.45;94619.84;4924878;29;20047;-93
2022/07/04 06:25:51;;;;;;;6.22;2.60;;;;;;;25.54;100.00;94627.06;4940864;29;20035;-93
2022/07/04 06:28:33;;;;;;;9.75;2.88;;;;;;;25.87;94.84;94624.91;4925005;29;20039;-92
2022/07/04 06:30:58;;;;;;;4.45;2.78;;;;;;;25.99;97.61;94623.94;4925954;29;20035;-93
2022/07/04 06:33:24;;;;;;;7.28;2.60;;;;;;;25.94;97.42;94613.50;4940813;29;20036;-92
2022/07/04 06:35:54;;;;;;;6.80;2.95;;;;;;;26.04;92.56;94612.09;4956265;28;20136;-92
2022/07/04 06:45:28;;;;;;;8.38;2.65;;;;;;;26.25;99.70;94606.28;4940541;29;20059;-93
2022/07/04 06:48:30;;;;;;;5.40;2.65;;;;;;;26.01;100.00;94607.47;4924714;29;20426;-93
2022/07/04 06:57:27;;;;;;;8.25;2.97;;;;;;;26.78;97.51;94597.41;4940268;29;20043;-92
2022/07/04 06:59:52;;;;;;;7.35;3.38;;;;;;;27.02;97.83;94598.06;4940499;29;20111;-92
2022/07/04 07:02:18;;;;;;;7.38;2.90;;;;;;;26.62;100.00;94605.63;4965341;28;20033;-93
2022/07/04 07:04:43;;;;;;;8.48;3.10;;;;;;;26.77;99.41;94606.59;5019443;28;20084;-92
2022/07/04 07:07:09;;;;;;;3.30;2.50;;;;;;;27.09;98.12;94605.44;4986045;28;20060;-92
2022/07/04 07:09:34;;;;;;;5.13;2.17;;;;;;;26.96;95.91;94604.91;5002176;28;20120;-93
2022/07/04 07:12:01;;;;;;;6.88;2.65;;;;;;;27.07;100.00;94605.81;4985894;28;20065;-92
2022/07/04 07:14:26;;;;;;;4.53;2.72;;;;;;;27.14;100.00;94609.69;5001979;28;20397;-92
2022/07/04 07:16:52;;;;;;;7.10;2.78;;;;;;;27.37;95.63;94607.63;5001987;28;20040;-92
2022/07/04 07:19:17;;;;;;;7.82;2.53;;;;;;;27.06;100.00;94606.94;5002043;28;20045;-92
2022/07/04 07:21:43;;;;;;;4.68;2.70;;;;;;;27.39;100.00;94607.25;5001921;28;20052;-94
2022/07/04 07:24:08;;;;;;;3.85;2.60;;;;;;;27.60;100.00;94600.56;5001785;28;20378;-92
2022/07/04 07:26:34;;;;;;;3.83;2.28;;;;;;;27.85;100.00;94600.00;5019366;28;20037;-93
2022/07/04 07:28:59;;;;;;;6.55;2.28;;;;;;;28.08;100.00;94597.84;4985752;28;20026;-93
2022/07/04 07:31:47;;;;;;;8.25;2.60;;;;;;;28.40;93.09;94601.91;5019258;28;20045;-93
2022/07/04 07:34:13;;;;;;;4.30;2.65;;;;;;;28.71;88.41;94596.28;5019394;28;20037;-94
2022/07/04 07:36:39;;;;;;;6.80;2.60;;;;;;;29.21;85.44;94599.16;5002207;28;20030;-94
2022/07/04 07:39:04;;;;;;;7.68;2.70;;;;;;;29.24;78.64;94602.22;5001689;28;20034;-94
2022/07/04 07:41:29;;;;;;;4.32;2.40;;;;;;;29.51;76.44;94588.41;5019333;28;20037;-93
2022/07/04 07:43:55;;;;;;;6.18;2.28;;;;;;;29.42;75.03;94594.16;5001602;28;20354;-94
2022/07/04 07:46:20;;;;;;;4.03;2.30;;;;;;;29.36;69.71;94601.88;4985288;28;20036;-93
2022/07/04 07:48:46;;;;;;;5.00;2.15;;;;;;;29.04;75.28;94600.63;5001654;28;20108;-93
2022/07/04 07:51:13;;;;;;;4.60;2.42;;;;;;;29.28;69.74;94598.38;5001556;28;20030;-93
2022/07/04 07:53:39;;;;;;;6.55;2.42;;;;;;;29.55;67.87;94598.06;4985615;28;20060;-93
2022/07/04 07:56:04;;;;;;;7.45;2.42;;;;;;;29.51;71.52;94591.13;4985522;28;20387;-93
2022/07/04 07:58:30;;;;;;;7.78;2.67;;;;;;;29.42;67.73;94597.69;5019101;28;20034;-94
2022/07/04 08:00:55;;;;;;;6.85;2.80;;;;;;;29.30;66.81;94598.78;5001480;28;20030;-93
2022/07/04 08:06:05;;;;;;;7.22;2.42;;;;;;;29.41;78.45;94584.53;5018883;28;20049;-93
2022/07/04 08:08:30;;;;;;;5.82;2.80;;;;;;;29.21;76.42;94591.06;4985170;28;20025;-93
2022/07/04 08:10:55;;;;;;;7.65;2.20;;;;;;;29.50;76.04;94584.97;5001211;28;20036;-94
2022/07/04 08:13:21;;;;;;;7.75;2.67;;;;;;;29.54;77.79;94587.66;4985165;28;20391;-94
2022/07/04 08:15:46;;;;;;;4.80;2.67;;;;;;;29.59;76.64;94581.88;4985130;28;20025;-94
2022/07/04 08:18:12;;;;;;;11.15;2.60;;;;;;;29.61;75.92;94579.56;5001021;28;20033;-94
2022/07/04 08:20:38;;;;;;;4.65;2.40;;;;;;;29.72;70.78;94588.44;4984427;28;20087;-94
2022/07/04 08:23:03;;;;;;;4.88;2.78;;;;;;;29.94;71.40;94584.97;4984670;28;20025;-91
2022/07/04 08:25:29;;;;;;;10.00;2.67;;;;;;;30.17;68.34;94592.66;4984644;28;20033;-91
2022/07/04 08:27:54;;;;;;;5.38;2.50;;;;;;;30.32;65.98;94574.47;4984544;28;20029;-91
2022/07/04 08:30:20;;;;;;;5.55;2.60;;;;;;;30.39;68.38;94576.38;5000494;28;20068;-91
2022/07/04 08:32:46;;;;;;;5.63;2.70;;;;;;;30.32;67.09;94577.19;4984471;28;20030;-91
2022/07/04 08:35:11;;;;;;;6.15;2.50;;;;;;;30.16;66.52;94585.72;5000595;28;20022;-90
2022/07/04 08:37:37;;;;;;;7.18;2.70;;;;;;;30.27;69.38;94577.59;4984360;28;20025;-90
2022/07/04 08:40:06;;;;;;;9.55;2.70;;;;;;;30.36;67.42;94579.88;5000530;28;20442;-91
2022/07/04 08:42:37;;;;;;;5.10;2.40;;;;;;;30.64;69.79;94584.47;5000780;28;20034;-91
2022/07/04 08:45:03;;;;;;;4.65;2.63;;;;;;;30.61;64.68;94588.69;5000467;28;20359;-90
2022/07/04 08:47:33;;;;;;;9.02;2.97;;;;;;;30.61;65.67;94587.91;4984034;28;20034;-89
2022/07/04 08:50:10;;;;;;;8.68;2.67;;;;;;;30.49;61.01;94589.09;5000533;28;20113;-90
2022/07/04 08:52:36;;;;;;;6.90;2.60;;;;;;;30.75;64.61;94595.22;4984531;28;20084;-91
2022/07/04 09:00:31;;;;;;;7.80;3.20;;;;;;;30.96;68.18;94593.56;5002704;28;20036;-90
2022/07/04 09:02:59;;;;;;;6.25;3.17;;;;;;;30.67;55.29;94593.69;4983931;28;20435;-90
2022/07/04 09:05:24;;;;;;;6.00;2.63;;;;;;;30.80;59.97;94594.81;4983415;28;20034;-90
2022/07/04 09:07:50;;;;;;;6.30;2.70;;;;;;;31.04;58.16;94586.97;5000081;28;20456;-89
2022/07/04 09:10:16;;;;;;;9.00;2.70;;;;;;;31.30;57.55;94593.03;5000155;28;20025;-90
2022/07/04 09:12:41;;;;;;;8.50;2.60;;;;;;;31.34;56.75;94593.00;5017238;28;20030;-90
2022/07/04 09:15:07;;;;;;;7.57;2.92;;;;;;;31.45;55.70;94593.69;4999765;28;20033;-89
2022/07/04 09:17:33;;;;;;;4.85;2.53;;;;;;;31.42;54.87;94598.00;5017767;28;20034;-90
2022/07/04 09:20:11;;;;;;;6.80;2.72;;;;;;;31.44;53.04;94598.38;4983582;28;20029;-91
2022/07/04 09:22:37;;;;;;;6.45;2.67;;;;;;;31.90;54.46;94598.44;4999529;28;20034;-90
2022/07/04 09:25:05;;;;;;;5.78;2.72;;;;;;;32.37;54.22;94602.66;4999579;28;20064;-90
2022/07/04 09:27:36;;;;;;;5.22;2.53;;;;;;;32.67;52.45;94595.72;5017112;28;20029;-90
2022/07/04 09:30:05;;;;;;;5.78;2.55;;;;;;;33.14;48.28;94595.97;4999299;28;20069;-89
2022/07/04 09:32:41;;;;;;;5.30;2.25;;;;;;;34.03;49.12;94607.09;5016801;28;20084;-90
2022/07/04 09:35:11;;;;;;;5.63;2.45;;;;;;;33.19;51.08;94594.72;5017074;28;20402;-89
2022/07/04 09:37:41;;;;;;;6.18;2.38;;;;;;;33.94;51.72;94604.88;4999496;28;20030;-91
2022/07/04 09:40:09;;;;;;;7.65;2.65;;;;;;;33.57;53.31;94607.38;4999520;28;20354;-91
2022/07/04 09:42:37;;;;;;;11.45;3.22;;;;;;;32.95;55.16;94600.09;4966650;28;20132;-91
2022/07/04 09:45:26;;;;;;;7.35;2.88;;;;;;;32.41;55.30;94608.81;4979980;28;20034;-91
2022/07/04 09:47:57;;;;;;;7.47;2.90;;;;;;;31.82;59.57;94610.47;4980765;28;20127;-91
2022/07/04 09:50:25;;;;;;;7.07;2.85;;;;;;;31.79;60.57;94609.34;4979865;28;20034;-91
2022/07/04 09:52:54;;;;;;;5.65;2.58;;;;;;;32.64;57.59;94615.53;4997100;28;20030;-91
2022/07/04 09:55:24;;;;;;;11.57;3.28;;;;;;;32.91;58.46;94606.72;4997184;28;20101;-92
2022/07/04 09:57:50;;;;;;;7.00;2.72;;;;;;;32.25;61.24;94610.09;4997185;28;20121;-92
2022/07/04 10:00:20;;;;;;;6.75;3.28;;;;;;;31.37;61.77;94609.22;4964114;28;20057;-91
2022/07/04 10:02:46;;;;;;;7.43;3.30;;;;;;;30.52;67.09;94611.88;4979902;28;20034;-91
2022/07/04 10:05:11;;;;;;;7.35;2.97;;;;;;;30.71;70.47;94614.16;4963899;28;20121;-90
2022/07/04 10:07:45;;;;;;;10.93;4.20;;;;;;;30.29;69.42;94613.88;4964163;28;20424;-90
2022/07/04 10:10:27;;;;;;;13.02;3.47;;;;;;;30.36;71.11;94621.19;4980579;28;20026;-92
2022/07/04 10:12:59;;;;;;;11.75;4.07;;;;;;;29.96;74.33;94618.50;4980156;28;20337;-93
2022/07/04 10:15:25;;;;;;;11.18;3.50;;;;;;;29.92;78.84;94615.03;4974693;28;20072;-91
2022/07/04 10:17:51;;;;;;;5.85;3.60;;;;;;;30.18;77.34;94613.13;4982915;28;20050;-91
2022/07/04 10:20:30;;;;;;;6.68;3.72;;;;;;;29.95;75.68;94602.69;4986547;28;20113;-92
2022/07/04 10:22:57;;;;;;;6.97;3.95;;;;;;;29.74;75.84;94590.75;4989935;28;20463;-91
2022/07/04 10:25:22;;;;;;;7.63;3.92;;;;;;;29.58;79.17;94591.13;4998935;28;20038;-90
2022/07/04 10:27:50;;;;;;;13.63;4.38;;;;;;;29.25;81.13;94590.28;4999039;28;20457;-91
2022/07/04 10:30:21;;;;;;;6.55;4.05;;;;;;;29.55;77.85;94591.88;4983345;28;20029;-91
2022/07/04 10:32:46;;;;;;;8.73;3.45;;;;;;;30.37;78.57;94594.94;4998902;28;20030;-91
2022/07/04 10:35:13;;;;;;;10.63;4.20;;;;;;;30.37;74.63;94598.41;4998892;28;20171;-90
2022/07/04 10:37:58;;;;;;;9.30;3.67;;;;;;;29.92;82.96;94596.13;5016369;28;20036;-92
2022/07/04 10:40:44;;;;;;;15.57;4.82;;;;;;;29.55;75.70;94589.19;4999170;28;20072;-91
2022/07/04 10:46:02;;;;;;;13.40;4.53;;;;;;;29.63;76.53;94590.75;5020014;28;20523;-92
2022/07/04 10:48:27;;;;;;;12.45;3.85;;;;;;;30.43;81.66;94596.84;5019997;28;20053;-91
2022/07/04 10:51:04;;;;;;;9.88;4.13;;;;;;;30.28;81.80;94603.44;5002715;28;20030;-91
2022/07/04 10:53:30;;;;;;;8.70;4.25;;;;;;;30.52;79.28;94606.47;5002562;28;20042;-91
2022/07/04 10:56:25;;;;;;;17.58;4.82;;;;;;;31.35;75.53;94618.91;5002713;28;20168;-91
2022/07/04 10:58:51;;;;;;;9.30;4.38;;;;;;;31.17;78.60;94625.94;4981156;28;20477;-91
2022/07/04 11:01:20;;;;;;;9.77;4.80;;;;;;;31.26;70.22;94646.41;5002183;28;20077;-91
2022/07/04 11:03:50;;;;;;;7.82;3.97;;;;;;;31.38;66.81;94632.41;4986513;28;20076;-91
2022/07/04 11:06:45;;;;;;;16.05;5.70;;;;;;;30.57;71.16;94631.19;5002206;28;20451;-92
2022/07/04 11:09:24;;;;;;;16.85;6.00;;;;;;;30.33;70.80;94640.88;5002352;28;20440;-92
2022/07/04 11:12:01;;;;;;;13.23;4.53;;;;;;;31.60;65.01;94653.94;5020192;28;20116;-91
2022/07/04 11:14:56;;;;;;;8.85;5.10;;;;;;;32.01;62.05;94645.16;4985745;28;20037;-92
2022/07/04 11:17:33;;;;;;;16.50;6.30;;;;;;;31.81;60.35;94642.22;4950366;28;20049;-90
2022/07/04 11:20:03;;;;;;;19.70;6.20;;;;;;;31.68;61.62;94639.19;4966998;28;20030;-90
2022/07/04 11:22:30;;;;;;;20.42;5.72;;;;;;;30.75;65.76;94646.59;4982354;28;20148;-91
2022/07/04 11:24:56;;;;;;;18.20;5.25;;;;;;;31.56;66.08;94636.94;4982100;28;20030;-91
2022/07/04 11:27:22;;;;;;;17.00;6.32;;;;;;;30.68;66.74;94641.22;4982269;28;20030;-92
2022/07/04 11:29:51;;;;;;;19.60;5.63;;;;;;;30.89;67.83;94643.84;4982352;28;20070;-92
2022/07/04 11:32:16;;;;;;;24.38;5.80;;;;;;;31.01;67.71;94639.94;4982662;28;20036;-92
2022/07/04 11:34:42;;;;;;;18.25;6.40;;;;;;;30.97;66.66;94632.97;4982028;28;20053;-91
2022/07/04 11:37:07;;;;;;;15.73;7.63;;;;;;;30.74;66.31;94629.59;4982140;28;20026;-91
2022/07/04 11:39:33;;;;;;;19.45;5.88;;;;;;;30.70;66.43;94631.56;4982087;28;20030;-91
2022/07/04 11:45:02;;;;;;;21.00;7.20;;;;;;;30.67;66.25;94626.94;4984605;28;20093;-90
2022/07/04 11:47:38;;;;;;;10.02;4.97;;;;;;;31.54;64.53;94623.03;4999585;28;20037;-91
2022/07/04 11:50:18;;;;;;;11.07;5.10;;;;;;;31.48;64.30;94624.63;4982723;28;20355;-91
2022/07/04 11:52:46;;;;;;;10.18;4.78;;;;;;;31.04;66.71;94630.25;4998889;28;20030;-90
2022/07/04 11:55:14;;;;;;;14.82;5.30;;;;;;;30.55;69.20;94627.31;4998389;28;20383;-91
2022/07/04 11:57:45;;;;;;;11.63;4.97;;;;;;;31.06;65.07;94629.84;4966174;28;20030;-91
2022/07/04 12:00:15;;;;;;;13.60;5.80;;;;;;;30.65;64.42;94623.06;4981634;28;20341;-91
2022/07/04 12:02:41;;;;;;;11.02;4.53;;;;;;;31.38;65.05;94620.84;4981570;28;20038;-92
2022/07/04 12:05:09;;;;;;;14.10;5.28;;;;;;;31.29;64.12;94611.22;4965738;28;20185;-90
2022/07/04 12:07:37;;;;;;;15.82;5.35;;;;;;;30.77;64.75;94606.41;4981547;28;20038;-92
2022/07/04 12:10:16;;;;;;;12.85;5.70;;;;;;;30.52;66.71;94609.94;4965585;28;20072;-90
2022/07/04 12:13:06;;;;;;;11.73;5.07;;;;;;;30.65;68.23;94609.56;4981464;28;20034;-90
2022/07/04 12:15:45;;;;;;;18.73;5.78;;;;;;;30.84;64.32;94602.91;4982307;28;20121;-92
2022/07/04 12:18:32;;;;;;;11.57;5.55;;;;;;;30.68;64.82;94593.31;4981803;28;20026;-92
2022/07/04 12:21:17;;;;;;;13.48;4.93;;;;;;;30.75;68.08;94595.22;4981432;28;20463;-91
2022/07/04 12:23:53;;;;;;;10.40;4.93;;;;;;;31.08;63.86;94603.19;4981955;28;20030;-92
2022/07/04 12:26:47;;;;;;;9.93;4.70;;;;;;;31.03;62.42;94604.38;5000373;28;20026;-92